Time;durP1;ratioP1;P1;durP2;ratioP2;P2;SDS_P1;SDS_P2;PMS_P1;PMS_P2;Temp;Humidity;BMP_temperature;BMP_pressure;BME280_temperature;BME280_humidity;BME280_pressure;Samples;Min_cycle;Max_cycle;Signal;HPM_P1;HPM_P2
2022/10/31 00:00:01;;;;;;;4.82;1.80;;;;;;;16.34;62.80;95099.09;5000163;28;20308;-92
2022/10/31 00:02:27;;;;;;;7.32;1.90;;;;;;;16.36;62.74;95094.34;5017111;28;20022;-93
2022/10/31 00:04:52;;;;;;;9.80;1.92;;;;;;;16.42;62.72;95105.59;5016139;28;20080;-92
2022/10/31 00:07:17;;;;;;;7.65;2.08;;;;;;;16.60;62.26;95102.19;4999300;28;20076;-94
2022/10/31 00:09:43;;;;;;;9.98;2.40;;;;;;;16.78;62.91;95100.56;5015839;28;20029;-95
2022/10/31 00:12:08;;;;;;;10.23;2.30;;;;;;;16.74;63.00;95101.47;4999508;28;20026;-93
2022/10/31 00:14:33;;;;;;;6.38;1.75;;;;;;;16.62;63.42;95099.22;5018733;28;20026;-93
2022/10/31 00:16:59;;;;;;;5.00;1.70;;;;;;;16.42;64.45;95095.03;5020258;28;20033;-93
2022/10/31 00:19:24;;;;;;;12.95;2.20;;;;;;;16.34;64.51;95096.44;5019673;28;20351;-92
2022/10/31 00:21:51;;;;;;;10.52;2.13;;;;;;;16.42;63.77;95095.03;5003449;28;20021;-93
2022/10/31 00:24:17;;;;;;;11.88;1.90;;;;;;;16.35;64.14;95095.38;5003532;28;20072;-93
2022/10/31 00:26:43;;;;;;;11.07;2.30;;;;;;;16.30;64.32;95100.75;5020578;28;20025;-93
2022/10/31 00:29:08;;;;;;;8.32;1.85;;;;;;;16.23;65.05;95098.44;5002910;28;20025;-93
2022/10/31 00:31:34;;;;;;;6.85;1.70;;;;;;;15.94;65.68;95102.78;5003306;28;20037;-93
2022/10/31 00:33:59;;;;;;;6.85;1.98;;;;;;;16.02;62.68;95103.22;5003185;28;20026;-92
2022/10/31 00:36:26;;;;;;;7.50;1.30;;;;;;;15.94;63.19;95102.00;5003339;28;20453;-93
2022/10/31 00:38:51;;;;;;;9.77;1.75;;;;;;;15.91;61.47;95100.69;5019930;28;20073;-93
2022/10/31 00:41:17;;;;;;;5.25;1.23;;;;;;;16.12;60.90;95100.44;5003062;28;20037;-92
2022/10/31 00:43:43;;;;;;;5.30;1.65;;;;;;;16.21;60.07;95097.97;5019424;28;20129;-93
2022/10/31 00:46:09;;;;;;;10.13;1.75;;;;;;;16.18;59.80;95095.88;5019223;28;20029;-92
2022/10/31 00:48:35;;;;;;;11.82;1.92;;;;;;;16.10;60.20;95098.09;5019105;28;20021;-92
2022/10/31 00:51:00;;;;;;;5.03;1.55;;;;;;;16.12;59.75;95097.81;5019083;28;20026;-92
2022/10/31 00:53:26;;;;;;;7.15;1.55;;;;;;;16.08;59.73;95096.81;4986679;28;20430;-93
2022/10/31 00:55:52;;;;;;;5.88;1.70;;;;;;;16.24;58.33;95092.09;5019251;28;20029;-92
2022/10/31 00:58:18;;;;;;;3.08;1.30;;;;;;;16.24;58.13;95100.03;5002931;28;20033;-92
2022/10/31 01:00:43;;;;;;;7.78;1.85;;;;;;;16.18;58.26;95095.88;5018191;28;20034;-91
2022/10/31 01:03:09;;;;;;;10.57;1.95;;;;;;;16.14;58.50;95089.56;4986405;28;20064;-93
2022/10/31 01:05:34;;;;;;;8.65;1.52;;;;;;;16.16;57.73;95088.22;5002691;28;20049;-93
2022/10/31 01:11:23;;;;;;;6.78;1.27;;;;;;;16.36;56.93;95095.09;5019949;28;20033;-93
2022/10/31 01:13:51;;;;;;;4.28;1.35;;;;;;;16.35;56.31;95088.25;5020098;28;20096;-92
2022/10/31 01:16:18;;;;;;;7.00;1.42;;;;;;;16.24;56.84;95086.81;5018627;28;20028;-93
2022/10/31 01:18:44;;;;;;;8.77;1.63;;;;;;;16.08;58.29;95088.88;5002182;28;20034;-94
2022/10/31 01:21:16;;;;;;;8.85;1.63;;;;;;;16.15;56.80;95088.53;5002747;28;20450;-93
2022/10/31 01:23:42;;;;;;;7.35;1.73;;;;;;;16.06;57.39;95091.78;5002521;28;20057;-93
2022/10/31 01:26:13;;;;;;;6.88;1.50;;;;;;;16.08;57.16;95092.28;5018811;28;20056;-93
2022/10/31 01:28:46;;;;;;;6.72;1.20;;;;;;;16.10;56.46;95089.38;5002359;28;20454;-93
2022/10/31 01:31:11;;;;;;;6.32;1.30;;;;;;;15.94;57.05;95086.94;5002271;28;20022;-92
2022/10/31 01:33:37;;;;;;;6.90;1.80;;;;;;;16.13;56.67;95083.53;5017965;28;20021;-91
2022/10/31 01:36:23;;;;;;;7.32;1.42;;;;;;;16.39;55.23;95091.09;5001587;28;20064;-91
2022/10/31 01:38:49;;;;;;;8.23;1.52;;;;;;;16.49;54.47;95079.59;5005846;28;20026;-91
2022/10/31 01:41:18;;;;;;;5.35;1.13;;;;;;;16.50;54.76;95081.97;5001378;28;20387;-92
2022/10/31 01:43:52;;;;;;;5.47;1.60;;;;;;;16.30;55.58;95079.59;5001711;28;20121;-92
2022/10/31 01:46:22;;;;;;;3.33;1.60;;;;;;;16.21;55.77;95074.16;4997520;28;20042;-91
2022/10/31 01:48:47;;;;;;;4.57;1.27;;;;;;;16.21;55.88;95077.59;5001808;28;20026;-91
2022/10/31 01:51:14;;;;;;;3.58;1.30;;;;;;;16.39;54.97;95075.25;4998304;28;20125;-92
2022/10/31 01:53:41;;;;;;;5.97;1.80;;;;;;;16.37;54.93;95077.41;4998489;28;20436;-92
2022/10/31 01:56:08;;;;;;;8.63;1.42;;;;;;;16.49;54.91;95076.94;4997256;28;20038;-92
2022/10/31 01:58:33;;;;;;;5.90;1.60;;;;;;;16.48;55.34;95075.38;4998034;28;20034;-90
2022/10/31 02:01:00;;;;;;;6.63;1.48;;;;;;;16.27;56.03;95066.94;4997176;28;20053;-92
2022/10/31 02:03:26;;;;;;;6.85;1.42;;;;;;;16.15;56.28;95065.50;4997861;28;20037;-92
2022/10/31 02:05:55;;;;;;;5.05;2.08;;;;;;;16.17;56.15;95066.00;4997854;28;20030;-92
2022/10/31 02:08:31;;;;;;;6.43;1.35;;;;;;;16.22;56.55;95062.50;4998149;28;20026;-93
2022/10/31 02:10:58;;;;;;;5.57;1.40;;;;;;;16.17;56.45;95063.38;4998016;28;20034;-93
2022/10/31 02:13:24;;;;;;;4.53;1.25;;;;;;;16.03;57.61;95059.84;4997855;28;20396;-93
2022/10/31 02:15:52;;;;;;;9.73;1.65;;;;;;;16.13;56.59;95059.72;4997956;28;20111;-92
2022/10/31 02:18:18;;;;;;;7.32;1.70;;;;;;;16.24;55.66;95058.53;4998042;28;20428;-92
2022/10/31 02:21:06;;;;;;;9.48;1.40;;;;;;;16.69;53.79;95059.97;4997737;28;20034;-92
2022/10/31 02:23:53;;;;;;;6.28;1.52;;;;;;;16.73;53.38;95053.03;4997991;28;20026;-91
2022/10/31 02:26:25;;;;;;;10.48;1.55;;;;;;;16.57;54.05;95060.44;5014246;28;20076;-93
2022/10/31 02:29:29;;;;;;;6.53;1.52;;;;;;;16.57;53.43;95063.09;4998801;28;20022;-92
2022/10/31 02:32:01;;;;;;;5.85;1.42;;;;;;;16.48;54.11;95057.63;4961244;28;20042;-92
2022/10/31 02:34:37;;;;;;;9.47;1.60;;;;;;;16.61;52.43;95055.34;4997473;28;20077;-93
2022/10/31 02:37:23;;;;;;;5.15;1.33;;;;;;;16.43;54.22;95055.06;4998024;28;20269;-92
2022/10/31 02:39:54;;;;;;;5.28;1.23;;;;;;;16.45;52.58;95047.63;4994552;28;20045;-92
2022/10/31 02:42:34;;;;;;;6.82;1.10;;;;;;;16.37;53.50;95058.88;4998425;28;20034;-92
2022/10/31 02:45:26;;;;;;;5.53;1.30;;;;;;;16.19;53.96;95053.28;4997472;28;20023;-92
2022/10/31 02:47:54;;;;;;;3.85;1.20;;;;;;;16.09;54.15;95051.56;4997415;28;20073;-90
2022/10/31 02:50:27;;;;;;;6.20;1.20;;;;;;;16.04;55.17;95056.94;4997399;28;20030;-92
2022/10/31 02:52:52;;;;;;;6.25;1.60;;;;;;;15.92;55.56;95053.94;4980896;28;20037;-92
2022/10/31 02:55:24;;;;;;;7.55;1.60;;;;;;;15.89;55.77;95054.47;4997356;28;20026;-92
2022/10/31 02:58:10;;;;;;;8.10;1.50;;;;;;;15.85;56.46;95056.88;4998119;28;20121;-91
2022/10/31 03:01:40;;;;;;;4.38;1.70;;;;;;;15.91;56.06;95052.34;4997776;28;20084;-92
2022/10/31 03:04:39;;;;;;;8.50;1.30;;;;;;;15.84;55.52;95064.00;4957494;29;20042;-92
2022/10/31 03:07:23;;;;;;;5.28;1.38;;;;;;;15.78;56.43;95065.16;4941592;29;20027;-92
2022/10/31 03:09:57;;;;;;;5.22;1.30;;;;;;;15.67;56.57;95061.84;4957729;29;20329;-91
2022/10/31 03:12:40;;;;;;;3.78;1.02;;;;;;;15.73;55.24;95062.59;4980323;28;20347;-92
2022/10/31 03:15:16;;;;;;;9.82;1.63;;;;;;;15.94;54.16;95059.72;4996932;28;20466;-92
2022/10/31 03:17:59;;;;;;;7.70;1.35;;;;;;;16.09;53.43;95064.03;4996915;28;20076;-91
2022/10/31 03:20:30;;;;;;;4.88;1.15;;;;;;;16.19;52.97;95063.09;4996688;28;20026;-92
2022/10/31 03:22:56;;;;;;;8.80;1.17;;;;;;;16.21;52.07;95061.75;4980983;28;20026;-92
2022/10/31 03:25:22;;;;;;;3.83;1.10;;;;;;;16.21;51.55;95061.75;4996826;28;20037;-92
2022/10/31 03:27:48;;;;;;;4.38;1.27;;;;;;;16.10;52.50;95065.59;4996781;28;20022;-92
2022/10/31 03:30:13;;;;;;;5.07;1.00;;;;;;;15.95;53.30;95070.00;4996702;28;20151;-91
2022/10/31 03:32:57;;;;;;;11.77;1.10;;;;;;;15.86;53.26;95061.09;4996736;28;20117;-92
2022/10/31 03:35:24;;;;;;;4.18;1.00;;;;;;;15.77;53.38;95066.22;4996633;28;20056;-92
2022/10/31 03:37:52;;;;;;;7.43;1.65;;;;;;;15.72;54.03;95070.78;4996578;28;20057;-93
2022/10/31 03:40:19;;;;;;;4.40;1.30;;;;;;;15.68;54.63;95062.63;4996627;28;20026;-93
2022/10/31 03:42:51;;;;;;;5.68;1.23;;;;;;;15.91;54.02;95074.25;4996678;28;20329;-92
2022/10/31 03:45:29;;;;;;;11.30;1.65;;;;;;;16.03;54.33;95068.59;4996504;28;20035;-93
2022/10/31 03:47:55;;;;;;;11.38;1.45;;;;;;;15.98;54.44;95071.28;4996953;28;20033;-92
2022/10/31 03:50:21;;;;;;;4.07;1.20;;;;;;;15.78;55.11;95070.44;5000647;28;20084;-92
2022/10/31 03:53:13;;;;;;;4.97;1.25;;;;;;;15.71;55.08;95066.56;5000837;28;20034;-92
2022/10/31 03:55:50;;;;;;;3.08;1.00;;;;;;;15.60;55.34;95069.31;5000908;28;20439;-92
2022/10/31 03:58:24;;;;;;;2.92;1.02;;;;;;;15.57;54.84;95061.97;5000533;28;20088;-91
2022/10/31 04:00:50;;;;;;;;;;;;;;;15.58;54.60;95074.09;5000729;28;20056;-92
2022/10/31 04:03:19;;;;;;;6.97;1.35;;;;;;;15.78;53.83;95070.44;5000792;28;19910;-92
2022/10/31 04:05:46;;;;;;;5.20;1.20;;;;;;;15.91;53.39;95071.63;5000486;28;20464;-91
2022/10/31 04:08:16;;;;;;;4.88;1.15;;;;;;;15.89;53.29;95076.41;5000497;28;20023;-92
2022/10/31 04:10:43;;;;;;;3.55;1.10;;;;;;;15.78;53.19;95067.00;5000646;28;20038;-92
2022/10/31 04:13:12;;;;;;;7.90;1.63;;;;;;;15.80;53.26;95078.88;5000277;28;20042;-92
2022/10/31 04:15:38;;;;;;;3.33;1.08;;;;;;;15.79;53.23;95065.97;5000099;28;20036;-92
2022/10/31 04:18:05;;;;;;;4.97;1.20;;;;;;;15.77;53.06;95071.50;5016507;28;20073;-92
2022/10/31 04:20:41;;;;;;;7.20;1.08;;;;;;;15.67;53.99;95072.41;4999878;28;20034;-91
2022/10/31 04:23:22;;;;;;;5.72;1.40;;;;;;;15.66;54.58;95067.41;4999919;28;20034;-91
2022/10/31 04:25:48;;;;;;;4.13;1.27;;;;;;;15.65;54.69;95071.91;4999833;28;20030;-91
2022/10/31 04:28:14;;;;;;;5.60;1.08;;;;;;;15.65;54.47;95071.13;4999730;28;20109;-92
2022/10/31 04:30:39;;;;;;;2.35;0.90;;;;;;;15.68;53.86;95079.28;4999711;28;20030;-92
2022/10/31 04:33:04;;;;;;;4.88;1.00;;;;;;;15.67;54.15;95072.41;5008945;28;20064;-90
2022/10/31 04:35:30;;;;;;;6.72;1.25;;;;;;;15.79;54.12;95064.09;4999533;28;20061;-91
2022/10/31 04:37:55;;;;;;;8.82;1.65;;;;;;;15.86;53.03;95071.66;5011477;28;20036;-91
2022/10/31 04:40:21;;;;;;;7.13;1.42;;;;;;;15.86;52.96;95065.59;5018864;28;20128;-92
2022/10/31 04:42:46;;;;;;;11.07;1.33;;;;;;;15.88;52.70;95072.16;5019090;28;20332;-91
2022/10/31 04:45:11;;;;;;;5.93;1.20;;;;;;;15.94;52.70;95065.78;5002914;28;20133;-91
2022/10/31 04:47:37;;;;;;;3.58;1.00;;;;;;;15.95;52.53;95077.13;5002949;28;20320;-92
2022/10/31 04:50:02;;;;;;;6.05;1.10;;;;;;;15.94;53.10;95072.91;5019048;28;20422;-91
2022/10/31 04:52:28;;;;;;;4.20;1.65;;;;;;;15.82;54.22;95075.94;5018892;28;20033;-92
2022/10/31 04:54:53;;;;;;;5.15;1.05;;;;;;;15.51;55.23;95079.72;5018971;28;20038;-92
2022/10/31 04:57:19;;;;;;;6.18;1.00;;;;;;;15.45;54.61;95067.66;5019095;28;20085;-92
2022/10/31 04:59:44;;;;;;;4.47;1.40;;;;;;;15.39;54.93;95076.66;5002318;28;20030;-91
2022/10/31 05:02:10;;;;;;;6.20;1.30;;;;;;;15.34;55.52;95074.88;5018699;28;20063;-91
2022/10/31 05:04:35;;;;;;;5.50;1.00;;;;;;;15.26;55.35;95067.56;5002571;28;20033;-91
2022/10/31 05:07:01;;;;;;;6.07;1.40;;;;;;;15.26;54.88;95059.66;5007414;28;20045;-91
2022/10/31 05:09:26;;;;;;;8.88;1.10;;;;;;;15.52;52.59;95059.38;4999043;28;20030;-92
2022/10/31 05:11:51;;;;;;;4.30;1.45;;;;;;;15.51;53.31;95058.59;4998963;28;20030;-92
2022/10/31 05:14:17;;;;;;;6.07;0.98;;;;;;;15.76;51.83;95074.41;4998993;28;20034;-92
2022/10/31 05:16:42;;;;;;;12.02;1.17;;;;;;;16.07;51.39;95066.94;5000088;28;20034;-92
2022/10/31 05:19:08;;;;;;;3.55;0.70;;;;;;;16.26;50.20;95071.44;4999025;28;20035;-92
2022/10/31 05:21:33;;;;;;;8.27;1.25;;;;;;;16.48;49.63;95067.44;4982882;28;20041;-92
2022/10/31 05:23:58;;;;;;;2.40;1.00;;;;;;;16.64;49.14;95073.28;4998765;28;20049;-92
2022/10/31 05:26:24;;;;;;;8.68;1.00;;;;;;;16.52;49.70;95066.59;4982723;28;20129;-92
2022/10/31 05:28:49;;;;;;;5.88;1.10;;;;;;;16.53;49.48;95065.50;4982756;28;20450;-91
2022/10/31 05:31:15;;;;;;;8.63;1.20;;;;;;;16.53;49.38;95062.88;4982660;28;20030;-92
2022/10/31 05:33:40;;;;;;;3.85;1.10;;;;;;;16.37;50.61;95069.47;4998586;28;20030;-92
2022/10/31 05:36:06;;;;;;;10.85;1.50;;;;;;;16.34;50.34;95070.00;4982804;28;20431;-92
2022/10/31 05:38:31;;;;;;;7.50;1.30;;;;;;;15.99;51.84;95075.50;4982330;28;20045;-92
2022/10/31 05:41:00;;;;;;;9.20;1.13;;;;;;;15.89;51.37;95065.03;4982363;28;20045;-93
2022/10/31 05:43:27;;;;;;;7.30;1.00;;;;;;;15.92;51.17;95057.38;4983039;28;20423;-92
2022/10/31 05:45:53;;;;;;;6.78;0.90;;;;;;;15.85;52.07;95062.16;4982425;28;20041;-91
2022/10/31 05:48:19;;;;;;;5.75;1.23;;;;;;;15.77;51.67;95068.06;4982296;28;20356;-92
2022/10/31 05:50:44;;;;;;;6.63;1.38;;;;;;;15.77;51.65;95063.59;4982252;28;20031;-92
2022/10/31 05:53:10;;;;;;;10.93;1.40;;;;;;;15.55;54.08;95061.47;4998566;28;20034;-92
2022/10/31 05:55:35;;;;;;;4.93;1.10;;;;;;;15.54;53.52;95065.94;4998296;28;20459;-92
2022/10/31 05:58:00;;;;;;;3.92;0.80;;;;;;;15.71;53.14;95063.94;4998224;28;20085;-92
2022/10/31 06:00:27;;;;;;;4.38;1.27;;;;;;;15.73;52.74;95065.22;4982190;28;20034;-92
2022/10/31 06:03:00;;;;;;;9.65;1.80;;;;;;;15.74;53.46;95069.44;4982181;28;20450;-92
2022/10/31 06:05:25;;;;;;;4.38;1.35;;;;;;;15.77;54.04;95066.22;4998207;28;20305;-92
2022/10/31 06:07:51;;;;;;;5.85;1.00;;;;;;;15.75;54.46;95068.38;4982239;28;20145;-94
2022/10/31 06:10:20;;;;;;;13.18;1.33;;;;;;;15.72;54.70;95071.56;4981814;28;20034;-92
2022/10/31 06:12:46;;;;;;;7.60;1.38;;;;;;;15.77;56.02;95074.16;4982178;28;20038;-93
2022/10/31 06:15:12;;;;;;;4.75;1.20;;;;;;;15.76;55.82;95074.41;4982290;28;20351;-93
2022/10/31 06:17:37;;;;;;;5.70;1.30;;;;;;;15.95;54.20;95070.00;4981787;28;20041;-93
2022/10/31 06:20:04;;;;;;;6.57;1.20;;;;;;;16.01;54.99;95075.22;4981870;28;20053;-94
2022/10/31 06:22:29;;;;;;;8.55;1.25;;;;;;;16.07;56.77;95074.09;4982041;28;20038;-94
2022/10/31 06:24:55;;;;;;;6.35;1.17;;;;;;;16.26;56.51;95082.00;4981929;28;20043;-93
2022/10/31 06:27:20;;;;;;;6.15;1.13;;;;;;;16.46;55.34;95075.66;4982011;28;20084;-93
2022/10/31 06:29:46;;;;;;;9.52;1.30;;;;;;;16.61;55.43;95085.22;4981821;28;20502;-94
2022/10/31 06:32:12;;;;;;;5.95;1.33;;;;;;;16.74;55.02;95086.34;4981937;28;20120;-93
2022/10/31 06:34:38;;;;;;;4.07;1.40;;;;;;;16.84;55.21;95092.56;4981672;28;20435;-93
2022/10/31 06:37:08;;;;;;;6.50;1.50;;;;;;;16.92;54.94;95091.88;4981673;28;20034;-93
2022/10/31 06:39:34;;;;;;;5.93;1.77;;;;;;;16.98;54.39;95085.47;4981642;28;20041;-93
2022/10/31 06:42:00;;;;;;;8.48;1.20;;;;;;;17.05;54.83;95098.34;4997238;28;20031;-91
2022/10/31 06:44:25;;;;;;;3.03;1.17;;;;;;;17.09;54.71;95092.19;4997285;28;20058;-92
2022/10/31 06:46:51;;;;;;;7.22;1.42;;;;;;;17.22;54.74;95098.56;4981331;28;20176;-91
2022/10/31 06:49:16;;;;;;;4.55;1.65;;;;;;;17.20;55.14;95094.63;4981215;28;20023;-92
2022/10/31 06:51:42;;;;;;;3.22;1.05;;;;;;;17.29;55.86;95095.56;4997081;28;20112;-93
2022/10/31 06:54:07;;;;;;;3.78;1.38;;;;;;;17.30;55.30;95099.00;4997237;28;20529;-92
2022/10/31 06:56:33;;;;;;;2.67;1.00;;;;;;;17.34;55.93;95094.69;4981110;28;20198;-91
2022/10/31 06:58:59;;;;;;;5.70;1.00;;;;;;;17.42;56.52;95095.88;4997120;28;20352;-91
2022/10/31 07:01:25;;;;;;;2.88;0.88;;;;;;;17.47;56.66;95103.72;4997940;28;20034;-90
2022/10/31 07:03:50;;;;;;;9.55;1.50;;;;;;;17.53;55.89;95099.91;4980869;28;20041;-92
2022/10/31 07:06:16;;;;;;;4.10;1.02;;;;;;;17.60;54.89;95108.25;4980876;28;20034;-91
2022/10/31 07:08:41;;;;;;;5.65;1.55;;;;;;;17.63;54.89;95098.94;4996735;28;20038;-92
2022/10/31 07:11:07;;;;;;;3.78;1.17;;;;;;;17.65;55.29;95110.81;4996773;28;20482;-90
2022/10/31 07:13:32;;;;;;;9.52;1.38;;;;;;;17.75;56.05;95106.38;4996761;28;20348;-91
2022/10/31 07:16:04;;;;;;;4.28;1.05;;;;;;;17.84;55.85;95109.13;4980640;28;20030;-91
2022/10/31 07:18:29;;;;;;;3.67;0.95;;;;;;;17.87;55.78;95111.97;4980741;28;20030;-90
2022/10/31 07:20:55;;;;;;;3.90;0.95;;;;;;;17.89;55.61;95114.34;5000547;28;20033;-90
2022/10/31 07:23:21;;;;;;;6.70;1.20;;;;;;;17.89;55.97;95109.81;4999436;28;20172;-91
2022/10/31 07:25:46;;;;;;;3.25;1.10;;;;;;;17.86;55.86;95117.56;4996697;28;20042;-91
2022/10/31 07:28:12;;;;;;;5.93;1.10;;;;;;;17.93;54.74;95116.13;4997622;28;20037;-91
2022/10/31 07:30:38;;;;;;;4.07;1.08;;;;;;;18.04;56.07;95111.41;4996166;28;20053;-91
2022/10/31 07:33:04;;;;;;;5.82;1.10;;;;;;;18.14;57.15;95118.38;4996441;28;20037;-92
2022/10/31 07:35:30;;;;;;;11.32;1.40;;;;;;;18.27;56.89;95118.66;4999315;28;20335;-90
2022/10/31 07:37:55;;;;;;;4.25;1.00;;;;;;;18.41;56.08;95127.38;5015727;28;20038;-90
2022/10/31 07:40:22;;;;;;;4.85;1.23;;;;;;;18.54;56.05;95122.31;5015516;28;20029;-91
2022/10/31 07:42:48;;;;;;;6.80;1.05;;;;;;;18.64;57.22;95122.06;4999757;28;20125;-93
2022/10/31 07:45:18;;;;;;;3.03;1.00;;;;;;;18.72;60.26;95121.38;5005329;28;20037;-91
2022/10/31 07:47:44;;;;;;;6.38;1.30;;;;;;;18.87;61.50;95125.56;5019185;28;20459;-91
2022/10/31 07:50:12;;;;;;;1.77;0.82;;;;;;;18.96;61.67;95117.66;5036451;28;20036;-92
2022/10/31 07:52:38;;;;;;;5.07;1.30;;;;;;;18.96;61.06;95125.63;5035650;28;20068;-92
2022/10/31 07:55:04;;;;;;;5.45;1.30;;;;;;;18.99;62.49;95116.25;5019224;28;20071;-91
2022/10/31 07:57:29;;;;;;;8.85;1.20;;;;;;;18.99;62.22;95114.41;5019181;28;20030;-90
2022/10/31 07:59:55;;;;;;;4.60;1.13;;;;;;;19.11;61.74;95118.41;5035440;28;20029;-90
2022/10/31 08:02:20;;;;;;;5.80;1.30;;;;;;;19.11;61.95;95129.03;5018851;28;20032;-92
2022/10/31 08:04:46;;;;;;;6.60;1.23;;;;;;;19.15;61.39;95127.31;5035463;28;20029;-90
2022/10/31 08:07:11;;;;;;;4.28;1.00;;;;;;;19.22;59.99;95117.03;5019040;28;20123;-91
2022/10/31 08:09:36;;;;;;;7.80;1.33;;;;;;;19.28;59.57;95126.47;5035216;28;20025;-90
2022/10/31 08:12:02;;;;;;;9.00;1.42;;;;;;;19.21;60.53;95129.56;5018511;28;20331;-90
2022/10/31 08:14:28;;;;;;;3.50;1.20;;;;;;;19.13;61.31;95126.84;5036365;28;20037;-89
2022/10/31 08:16:53;;;;;;;4.03;0.90;;;;;;;19.33;59.56;95125.56;5035508;28;20475;-90
2022/10/31 08:19:19;;;;;;;8.98;1.10;;;;;;;19.32;59.18;95129.31;5035081;28;20124;-89
2022/10/31 08:21:45;;;;;;;5.13;1.10;;;;;;;19.30;58.80;95132.25;5029114;28;20037;-90
2022/10/31 08:24:10;;;;;;;5.90;1.10;;;;;;;19.54;57.54;95125.81;4999217;28;20128;-90
2022/10/31 08:26:35;;;;;;;4.63;1.40;;;;;;;19.57;56.67;95129.72;5015495;28;20030;-90
2022/10/31 08:29:21;;;;;;;8.00;1.35;;;;;;;19.68;55.31;95130.25;5015358;28;20026;-90
2022/10/31 08:31:47;;;;;;;11.43;1.63;;;;;;;19.54;52.71;95133.78;5014958;28;20030;-90
2022/10/31 08:34:12;;;;;;;6.10;1.27;;;;;;;19.73;52.82;95130.13;5015899;28;20030;-91
2022/10/31 08:36:38;;;;;;;5.97;1.42;;;;;;;19.86;51.88;95131.88;5002744;28;20088;-90
2022/10/31 08:39:03;;;;;;;5.68;0.98;;;;;;;20.00;51.65;95128.34;5002819;28;20478;-90
2022/10/31 08:41:29;;;;;;;4.78;1.27;;;;;;;20.02;52.15;95119.00;5017454;28;20096;-90
2022/10/31 08:43:54;;;;;;;5.22;1.10;;;;;;;20.22;51.66;95124.00;5018596;28;20030;-91
2022/10/31 08:46:20;;;;;;;4.10;1.10;;;;;;;20.38;52.70;95124.38;5018786;28;20033;-90
2022/10/31 08:48:48;;;;;;;9.20;2.13;;;;;;;20.49;51.56;95126.41;5002404;28;20029;-90
2022/10/31 08:51:13;;;;;;;7.35;1.30;;;;;;;20.57;51.80;95119.53;5002122;28;20029;-91
2022/10/31 08:53:38;;;;;;;6.20;1.58;;;;;;;20.59;53.21;95124.53;5019969;28;20034;-90
2022/10/31 08:56:04;;;;;;;3.75;1.25;;;;;;;20.76;53.60;95121.88;5018568;28;20033;-91
2022/10/31 08:58:30;;;;;;;10.45;1.23;;;;;;;20.64;53.38;95116.38;5018514;28;20454;-90
2022/10/31 09:00:56;;;;;;;7.30;1.30;;;;;;;20.66;54.18;95124.88;5018451;28;20034;-90
2022/10/31 09:03:30;;;;;;;8.75;1.13;;;;;;;20.94;51.15;95121.88;5002486;28;20033;-90
2022/10/31 09:05:59;;;;;;;6.07;1.27;;;;;;;20.92;53.64;95118.00;5018484;28;20367;-91
2022/10/31 09:08:25;;;;;;;4.75;1.08;;;;;;;20.96;53.18;95121.59;5018714;28;20037;-90
2022/10/31 09:10:51;;;;;;;4.60;1.23;;;;;;;21.07;52.88;95114.84;5002117;28;20423;-90
2022/10/31 09:13:19;;;;;;;3.55;1.20;;;;;;;21.12;52.90;95124.56;5018314;28;20419;-91
2022/10/31 09:15:46;;;;;;;6.93;1.45;;;;;;;21.16;52.29;95122.81;4998565;28;20041;-91
2022/10/31 09:18:13;;;;;;;10.73;2.20;;;;;;;21.23;52.93;95117.78;4982356;28;20332;-89
2022/10/31 09:20:40;;;;;;;6.03;1.60;;;;;;;21.28;53.08;95112.28;4999852;28;20032;-90
2022/10/31 09:23:11;;;;;;;8.30;1.52;;;;;;;21.28;53.37;95117.63;4982491;28;20335;-90
2022/10/31 09:25:37;;;;;;;3.88;1.30;;;;;;;21.45;51.63;95124.00;4982478;28;20132;-92
2022/10/31 09:28:05;;;;;;;3.97;1.70;;;;;;;21.53;49.90;95120.53;4982275;28;20432;-90
2022/10/31 09:30:32;;;;;;;5.53;1.30;;;;;;;21.61;49.06;95124.28;5015860;28;20048;-88
2022/10/31 09:33:01;;;;;;;5.80;1.35;;;;;;;21.72;48.65;95124.72;4998660;28;20026;-88
2022/10/31 09:35:27;;;;;;;5.50;1.17;;;;;;;21.74;47.80;95122.50;4998733;28;20032;-88
2022/10/31 09:38:01;;;;;;;2.80;1.27;;;;;;;21.89;48.42;95118.53;4999544;28;20066;-89
2022/10/31 09:41:02;;;;;;;3.88;1.08;;;;;;;22.02;48.27;95116.75;4997956;28;20031;-88
2022/10/31 09:43:36;;;;;;;7.88;1.20;;;;;;;22.12;49.20;95116.38;4958422;29;20095;-87
2022/10/31 09:46:12;;;;;;;7.20;1.20;;;;;;;22.28;48.06;95113.13;4975216;28;20053;-88
2022/10/31 09:48:52;;;;;;;10.88;1.70;;;;;;;22.31;46.95;95115.16;4998215;28;20442;-88
2022/10/31 09:51:32;;;;;;;6.18;1.20;;;;;;;22.45;47.31;95120.22;5014337;28;20084;-88
2022/10/31 09:54:00;;;;;;;5.57;1.30;;;;;;;22.53;47.44;95122.09;4998135;28;20030;-88
2022/10/31 09:56:25;;;;;;;4.40;1.10;;;;;;;22.60;49.47;95121.59;4998114;28;20033;-87
2022/10/31 09:58:55;;;;;;;9.05;1.20;;;;;;;22.57;48.13;95122.25;4996493;28;20031;-87
2022/10/31 10:01:59;;;;;;;8.38;1.83;;;;;;;22.50;49.18;95120.09;5016668;28;20045;-87
2022/10/31 10:04:45;;;;;;;5.15;1.50;;;;;;;22.56;48.69;95118.78;4958142;29;20035;-88
2022/10/31 10:07:21;;;;;;;5.10;1.65;;;;;;;22.62;47.58;95111.34;5013339;28;20048;-88
2022/10/31 10:09:46;;;;;;;5.05;1.27;;;;;;;22.76;47.73;95121.78;5012917;28;20030;-88
2022/10/31 10:12:46;;;;;;;3.90;1.20;;;;;;;22.95;47.59;95115.16;5000918;28;20083;-88
2022/10/31 10:15:41;;;;;;;9.68;1.42;;;;;;;23.00;47.88;95121.09;5000765;28;20032;-89
2022/10/31 10:18:09;;;;;;;8.15;1.27;;;;;;;22.94;46.97;95114.38;5017248;28;20033;-88
2022/10/31 10:20:41;;;;;;;7.25;1.40;;;;;;;22.99;47.29;95116.88;5017711;28;20033;-87
2022/10/31 10:23:40;;;;;;;6.55;1.50;;;;;;;23.05;47.55;95113.97;5018379;28;20415;-87
2022/10/31 10:26:19;;;;;;;7.57;1.70;;;;;;;23.11;47.01;95113.44;5017089;28;20029;-88
2022/10/31 10:28:50;;;;;;;4.70;1.48;;;;;;;23.23;47.63;95112.69;5018202;28;20025;-88
2022/10/31 10:31:18;;;;;;;8.95;1.42;;;;;;;23.30;47.74;95110.28;5016673;28;20026;-88
2022/10/31 10:34:12;;;;;;;6.60;1.73;;;;;;;23.44;47.57;95101.19;5017051;28;20458;-88
2022/10/31 10:36:50;;;;;;;13.02;1.40;;;;;;;23.52;47.66;95108.31;5017817;28;20171;-89
2022/10/31 10:39:29;;;;;;;4.97;1.70;;;;;;;23.67;48.46;95106.09;5000847;28;20342;-87
2022/10/31 10:47:36;;;;;;;11.55;2.05;;;;;;;23.76;45.77;95100.66;5017025;28;20033;-88
2022/10/31 10:50:07;;;;;;;3.65;1.30;;;;;;;23.78;46.67;95099.19;5016837;28;20375;-88
2022/10/31 10:52:37;;;;;;;6.43;1.50;;;;;;;23.91;46.40;95096.53;5000384;28;20030;-87
2022/10/31 10:55:09;;;;;;;7.97;1.30;;;;;;;24.05;45.12;95096.22;5016997;28;20128;-87
2022/10/31 10:57:46;;;;;;;5.97;1.30;;;;;;;24.28;44.88;95099.22;4996843;28;20038;-88
2022/10/31 11:00:23;;;;;;;9.70;1.83;;;;;;;24.22;46.21;95100.53;5016879;28;20168;-88
2022/10/31 11:02:49;;;;;;;5.03;1.60;;;;;;;24.42;44.70;95085.44;5016738;28;20052;-89
2022/10/31 11:05:20;;;;;;;10.00;1.88;;;;;;;24.48;44.15;95086.00;5016511;28;20034;-86
2022/10/31 11:07:45;;;;;;;7.50;1.45;;;;;;;24.43;43.38;95087.81;5017408;28;20110;-86
2022/10/31 11:10:15;;;;;;;7.63;1.90;;;;;;;24.34;44.00;95087.13;4999344;28;20117;-86
2022/10/31 11:12:42;;;;;;;7.13;1.35;;;;;;;24.38;42.79;95077.31;5016416;28;20030;-86
2022/10/31 11:15:18;;;;;;;4.75;1.50;;;;;;;24.49;43.22;95082.19;5016058;28;20029;-86
2022/10/31 11:17:48;;;;;;;5.70;1.73;;;;;;;24.47;43.23;95074.50;5015976;28;20048;-85
2022/10/31 11:20:14;;;;;;;14.68;2.17;;;;;;;24.62;42.88;95067.66;5015543;28;20040;-86
2022/10/31 11:22:44;;;;;;;6.25;1.55;;;;;;;24.68;43.64;95071.66;5017142;28;20112;-86
2022/10/31 11:25:22;;;;;;;8.48;1.83;;;;;;;24.58;43.37;95069.44;4982013;28;20093;-86
2022/10/31 11:27:59;;;;;;;6.45;1.35;;;;;;;24.82;42.65;95070.53;4996193;28;20027;-86
2022/10/31 11:30:24;;;;;;;11.88;1.63;;;;;;;24.93;43.37;95063.53;4979799;28;20042;-86
2022/10/31 11:32:52;;;;;;;6.68;1.55;;;;;;;25.13;42.07;95069.78;4997322;28;20049;-86
2022/10/31 11:35:18;;;;;;;5.65;1.50;;;;;;;25.21;40.91;95059.25;4996130;28;20428;-86
2022/10/31 11:37:46;;;;;;;4.82;1.40;;;;;;;25.37;41.39;95059.25;4996438;28;20034;-86
2022/10/31 11:40:25;;;;;;;6.68;2.28;;;;;;;25.45;41.16;95054.84;4979623;28;20034;-86
2022/10/31 11:42:52;;;;;;;9.85;2.53;;;;;;;25.65;40.37;95055.72;4996100;28;20147;-87
2022/10/31 11:45:24;;;;;;;7.70;1.90;;;;;;;25.59;41.08;95059.81;4980018;28;20034;-86
2022/10/31 11:47:51;;;;;;;7.10;1.75;;;;;;;25.66;41.58;95051.91;4996172;28;20061;-86
2022/10/31 11:50:34;;;;;;;8.02;1.85;;;;;;;25.87;40.27;95053.53;4995750;28;20038;-86